RJTT/HND METAR and TAF weather

Enter ICAO airport designator
Station Type Date Time Source
RJTT METAR 2019/06/18 17:00 UTC NOAA

RJTT 181700Z 20009KT 9999 FEW030 BKN/// 22/17 Q1008 NOSIG


Station Type Date Time Source
RJTT Decoded METAR 2019/06/18 17:00 UTC NOAA

Tokyo International Airport, Japan (RJTT) 35-33N 139-47E 8M
Jun 18, 2019 - 01:00 PM EDT / 2019.06.18 1700 UTC
Wind: from the SSW (200 degrees) at 10 MPH (9 KT):0
Visibility: greater than 7 mile(s):0
Sky conditions: mostly cloudy
Temperature: 71 F (22 C)
Dew Point: 62 F (17 C)
Relative Humidity: 73%
Pressure (altimeter): 29.77 in. Hg (1008 hPa)
ob: RJTT 181700Z 20009KT 9999 FEW030 BKN/// 22/17 Q1008 NOSIG
cycle: 17

Station Type Date Time Source
RJTT TAF 2019/06/18 12:30 UTC NOAA

TAF RJTT 181105Z 1812/1918 20010KT 9999 FEW030
BECMG 1818/1820 33004KT
BECMG 1900/1903 19012KT
BECMG 1915/1918 34005KT

Example: see airport list